sensor_id;sensor_type;location;lat;lon;timestamp;P1;durP1;ratioP1;P2;durP2;ratioP2
73239;SDS011;61452;40.054;4.110;2023-02-24T00:01:12;3.17;;;1.88;;
73239;SDS011;61452;40.054;4.110;2023-02-24T00:06:19;4.50;;;2.15;;
73239;SDS011;61452;40.054;4.110;2023-02-24T00:11:21;6.20;;;2.75;;
73239;SDS011;61452;40.054;4.110;2023-02-24T00:16:23;4.53;;;2.00;;
73239;SDS011;61452;40.054;4.110;2023-02-24T00:21:26;4.82;;;2.55;;
73239;SDS011;61452;40.054;4.110;2023-02-24T00:26:29;4.70;;;2.03;;
73239;SDS011;61452;40.054;4.110;2023-02-24T00:31:32;5.93;;;2.17;;
73239;SDS011;61452;40.054;4.110;2023-02-24T00:36:34;4.72;;;2.15;;
73239;SDS011;61452;40.054;4.110;2023-02-24T00:41:38;4.60;;;2.40;;
73239;SDS011;61452;40.054;4.110;2023-02-24T00:46:45;4.55;;;2.53;;
73239;SDS011;61452;40.054;4.110;2023-02-24T00:51:47;4.38;;;2.25;;
73239;SDS011;61452;40.054;4.110;2023-02-24T00:56:50;3.40;;;2.05;;
73239;SDS011;61452;40.054;4.110;2023-02-24T01:01:52;4.22;;;2.20;;
73239;SDS011;61452;40.054;4.110;2023-02-24T01:06:55;3.78;;;2.08;;
73239;SDS011;61452;40.054;4.110;2023-02-24T01:12:01;3.22;;;2.17;;
73239;SDS011;61452;40.054;4.110;2023-02-24T01:17:22;3.55;;;2.13;;
73239;SDS011;61452;40.054;4.110;2023-02-24T01:22:24;2.85;;;1.60;;
73239;SDS011;61452;40.054;4.110;2023-02-24T01:27:26;5.63;;;2.30;;
73239;SDS011;61452;40.054;4.110;2023-02-24T01:32:28;4.40;;;1.67;;
73239;SDS011;61452;40.054;4.110;2023-02-24T01:37:32;3.90;;;2.20;;
73239;SDS011;61452;40.054;4.110;2023-02-24T01:42:35;3.85;;;2.08;;
73239;SDS011;61452;40.054;4.110;2023-02-24T01:47:37;2.88;;;1.77;;
73239;SDS011;61452;40.054;4.110;2023-02-24T01:52:41;3.58;;;1.85;;
73239;SDS011;61452;40.054;4.110;2023-02-24T01:57:46;3.65;;;1.88;;
73239;SDS011;61452;40.054;4.110;2023-02-24T02:02:51;3.17;;;1.67;;
73239;SDS011;61452;40.054;4.110;2023-02-24T02:07:53;5.25;;;2.00;;
73239;SDS011;61452;40.054;4.110;2023-02-24T02:12:56;4.72;;;2.10;;
73239;SDS011;61452;40.054;4.110;2023-02-24T02:34:44;2.55;;;1.83;;
73239;SDS011;61452;40.054;4.110;2023-02-24T02:45:39;2.20;;;1.58;;
73239;SDS011;61452;40.054;4.110;2023-02-24T02:50:54;4.22;;;2.03;;
73239;SDS011;61452;40.054;4.110;2023-02-24T03:01:19;3.80;;;1.75;;
73239;SDS011;61452;40.054;4.110;2023-02-24T03:11:52;3.45;;;2.30;;
73239;SDS011;61452;40.054;4.110;2023-02-24T03:17:00;3.70;;;2.17;;
73239;SDS011;61452;40.054;4.110;2023-02-24T03:22:09;3.78;;;2.00;;
73239;SDS011;61452;40.054;4.110;2023-02-24T03:32:28;4.15;;;2.05;;
73239;SDS011;61452;40.054;4.110;2023-02-24T03:37:34;3.15;;;1.85;;
73239;SDS011;61452;40.054;4.110;2023-02-24T03:42:49;3.72;;;2.60;;
73239;SDS011;61452;40.054;4.110;2023-02-24T03:47:55;3.95;;;2.05;;
73239;SDS011;61452;40.054;4.110;2023-02-24T04:09:40;4.07;;;1.90;;
73239;SDS011;61452;40.054;4.110;2023-02-24T04:14:55;6.63;;;2.45;;
73239;SDS011;61452;40.054;4.110;2023-02-24T04:20:09;2.63;;;1.63;;
73239;SDS011;61452;40.054;4.110;2023-02-24T04:25:23;3.15;;;1.98;;
73239;SDS011;61452;40.054;4.110;2023-02-24T04:30:30;4.97;;;2.05;;
73239;SDS011;61452;40.054;4.110;2023-02-24T04:35:37;4.75;;;2.10;;
73239;SDS011;61452;40.054;4.110;2023-02-24T04:45:43;3.90;;;1.98;;
73239;SDS011;61452;40.054;4.110;2023-02-24T04:50:45;4.88;;;2.17;;
73239;SDS011;61452;40.054;4.110;2023-02-24T04:55:49;5.03;;;2.28;;
73239;SDS011;61452;40.054;4.110;2023-02-24T05:00:51;3.63;;;2.30;;
73239;SDS011;61452;40.054;4.110;2023-02-24T05:05:55;4.85;;;2.10;;
73239;SDS011;61452;40.054;4.110;2023-02-24T05:11:00;7.53;;;2.15;;
73239;SDS011;61452;40.054;4.110;2023-02-24T05:16:05;4.00;;;2.20;;
73239;SDS011;61452;40.054;4.110;2023-02-24T05:21:10;4.15;;;1.70;;
73239;SDS011;61452;40.054;4.110;2023-02-24T05:26:34;4.85;;;2.20;;
73239;SDS011;61452;40.054;4.110;2023-02-24T05:31:37;5.60;;;2.60;;
73239;SDS011;61452;40.054;4.110;2023-02-24T05:36:40;5.13;;;2.10;;
73239;SDS011;61452;40.054;4.110;2023-02-24T05:41:42;5.80;;;2.25;;
73239;SDS011;61452;40.054;4.110;2023-02-24T05:46:44;4.40;;;1.83;;
73239;SDS011;61452;40.054;4.110;2023-02-24T05:51:51;4.35;;;2.10;;
73239;SDS011;61452;40.054;4.110;2023-02-24T05:56:59;3.75;;;2.28;;
73239;SDS011;61452;40.054;4.110;2023-02-24T06:02:04;4.15;;;1.98;;
73239;SDS011;61452;40.054;4.110;2023-02-24T06:07:10;3.58;;;1.90;;
73239;SDS011;61452;40.054;4.110;2023-02-24T06:12:21;4.65;;;2.00;;
73239;SDS011;61452;40.054;4.110;2023-02-24T06:17:24;3.20;;;1.88;;
73239;SDS011;61452;40.054;4.110;2023-02-24T06:22:28;3.50;;;2.25;;
73239;SDS011;61452;40.054;4.110;2023-02-24T06:27:30;3.33;;;1.90;;
73239;SDS011;61452;40.054;4.110;2023-02-24T06:32:33;5.07;;;2.10;;
73239;SDS011;61452;40.054;4.110;2023-02-24T06:37:36;3.38;;;1.92;;
73239;SDS011;61452;40.054;4.110;2023-02-24T06:42:47;3.13;;;1.90;;
73239;SDS011;61452;40.054;4.110;2023-02-24T06:47:51;2.83;;;1.95;;
73239;SDS011;61452;40.054;4.110;2023-02-24T06:52:54;4.15;;;1.90;;
73239;SDS011;61452;40.054;4.110;2023-02-24T06:58:01;5.03;;;2.20;;
73239;SDS011;61452;40.054;4.110;2023-02-24T07:03:08;3.72;;;2.00;;
73239;SDS011;61452;40.054;4.110;2023-02-24T07:08:18;3.58;;;2.30;;
73239;SDS011;61452;40.054;4.110;2023-02-24T07:13:23;3.83;;;2.30;;
73239;SDS011;61452;40.054;4.110;2023-02-24T07:18:26;5.10;;;2.65;;
73239;SDS011;61452;40.054;4.110;2023-02-24T07:23:28;3.60;;;1.88;;
73239;SDS011;61452;40.054;4.110;2023-02-24T07:28:31;3.35;;;2.20;;
73239;SDS011;61452;40.054;4.110;2023-02-24T07:33:35;5.10;;;2.15;;
73239;SDS011;61452;40.054;4.110;2023-02-24T07:38:37;4.00;;;2.20;;
73239;SDS011;61452;40.054;4.110;2023-02-24T07:43:40;5.30;;;2.35;;
73239;SDS011;61452;40.054;4.110;2023-02-24T07:48:44;6.22;;;2.20;;
73239;SDS011;61452;40.054;4.110;2023-02-24T07:53:50;4.35;;;2.63;;
73239;SDS011;61452;40.054;4.110;2023-02-24T07:59:01;3.35;;;2.03;;
73239;SDS011;61452;40.054;4.110;2023-02-24T08:04:09;3.72;;;2.30;;
73239;SDS011;61452;40.054;4.110;2023-02-24T08:09:14;4.05;;;1.90;;
73239;SDS011;61452;40.054;4.110;2023-02-24T08:14:18;4.90;;;2.35;;
73239;SDS011;61452;40.054;4.110;2023-02-24T08:19:28;6.10;;;2.33;;
73239;SDS011;61452;40.054;4.110;2023-02-24T08:24:34;3.35;;;2.03;;
73239;SDS011;61452;40.054;4.110;2023-02-24T08:29:37;4.15;;;1.80;;
73239;SDS011;61452;40.054;4.110;2023-02-24T08:34:59;4.03;;;2.30;;
73239;SDS011;61452;40.054;4.110;2023-02-24T08:40:07;4.95;;;2.40;;
73239;SDS011;61452;40.054;4.110;2023-02-24T08:45:34;3.75;;;2.30;;
73239;SDS011;61452;40.054;4.110;2023-02-24T08:50:39;4.45;;;2.25;;
73239;SDS011;61452;40.054;4.110;2023-02-24T08:55:41;4.00;;;2.35;;
73239;SDS011;61452;40.054;4.110;2023-02-24T09:00:44;3.55;;;2.10;;
73239;SDS011;61452;40.054;4.110;2023-02-24T09:05:50;5.10;;;2.50;;
73239;SDS011;61452;40.054;4.110;2023-02-24T09:10:55;3.97;;;2.00;;
73239;SDS011;61452;40.054;4.110;2023-02-24T09:15:58;6.88;;;2.10;;
73239;SDS011;61452;40.054;4.110;2023-02-24T09:21:06;3.47;;;1.80;;
73239;SDS011;61452;40.054;4.110;2023-02-24T09:26:32;3.13;;;1.80;;
73239;SDS011;61452;40.054;4.110;2023-02-24T09:31:43;3.42;;;2.08;;
73239;SDS011;61452;40.054;4.110;2023-02-24T09:36:56;5.07;;;2.50;;
73239;SDS011;61452;40.054;4.110;2023-02-24T09:42:09;3.58;;;2.10;;
73239;SDS011;61452;40.054;4.110;2023-02-24T09:47:22;4.68;;;2.20;;
73239;SDS011;61452;40.054;4.110;2023-02-24T09:52:40;5.43;;;2.42;;
73239;SDS011;61452;40.054;4.110;2023-02-24T09:58:26;4.45;;;2.38;;
73239;SDS011;61452;40.054;4.110;2023-02-24T10:09:22;3.47;;;1.90;;
73239;SDS011;61452;40.054;4.110;2023-02-24T10:14:38;3.90;;;2.17;;
73239;SDS011;61452;40.054;4.110;2023-02-24T10:25:48;4.60;;;2.60;;
73239;SDS011;61452;40.054;4.110;2023-02-24T10:36:46;4.78;;;2.30;;
73239;SDS011;61452;40.054;4.110;2023-02-24T10:47:22;4.65;;;2.47;;
73239;SDS011;61452;40.054;4.110;2023-02-24T10:52:38;4.05;;;2.20;;
73239;SDS011;61452;40.054;4.110;2023-02-24T10:58:00;6.65;;;2.50;;
73239;SDS011;61452;40.054;4.110;2023-02-24T11:03:08;2.50;;;1.90;;
73239;SDS011;61452;40.054;4.110;2023-02-24T11:08:28;3.60;;;1.98;;
73239;SDS011;61452;40.054;4.110;2023-02-24T11:13:46;3.30;;;2.13;;
73239;SDS011;61452;40.054;4.110;2023-02-24T11:19:09;4.50;;;2.28;;
73239;SDS011;61452;40.054;4.110;2023-02-24T11:24:14;3.50;;;2.58;;
73239;SDS011;61452;40.054;4.110;2023-02-24T11:29:25;4.22;;;2.33;;
73239;SDS011;61452;40.054;4.110;2023-02-24T11:34:51;4.13;;;2.42;;
73239;SDS011;61452;40.054;4.110;2023-02-24T11:40:16;3.55;;;2.20;;
73239;SDS011;61452;40.054;4.110;2023-02-24T11:50:53;4.47;;;2.42;;
73239;SDS011;61452;40.054;4.110;2023-02-24T11:56:06;4.30;;;2.10;;
73239;SDS011;61452;40.054;4.110;2023-02-24T12:01:37;4.55;;;2.13;;
73239;SDS011;61452;40.054;4.110;2023-02-24T12:06:50;5.32;;;2.10;;
73239;SDS011;61452;40.054;4.110;2023-02-24T12:12:22;5.30;;;1.95;;
73239;SDS011;61452;40.054;4.110;2023-02-24T12:17:52;4.63;;;2.00;;
73239;SDS011;61452;40.054;4.110;2023-02-24T12:28:18;4.20;;;2.40;;
73239;SDS011;61452;40.054;4.110;2023-02-24T12:39:19;4.57;;;2.83;;
73239;SDS011;61452;40.054;4.110;2023-02-24T13:11:48;4.65;;;2.22;;
73239;SDS011;61452;40.054;4.110;2023-02-24T13:17:01;6.45;;;2.38;;
73239;SDS011;61452;40.054;4.110;2023-02-24T13:27:18;5.43;;;3.10;;
73239;SDS011;61452;40.054;4.110;2023-02-24T13:32:30;4.68;;;2.38;;
73239;SDS011;61452;40.054;4.110;2023-02-24T13:37:44;4.55;;;2.55;;
73239;SDS011;61452;40.054;4.110;2023-02-24T13:48:21;4.97;;;2.40;;
73239;SDS011;61452;40.054;4.110;2023-02-24T13:53:54;5.60;;;2.53;;
73239;SDS011;61452;40.054;4.110;2023-02-24T14:04:23;4.70;;;2.10;;
73239;SDS011;61452;40.054;4.110;2023-02-24T14:09:31;4.07;;;1.90;;
73239;SDS011;61452;40.054;4.110;2023-02-24T14:14:37;4.22;;;2.45;;
73239;SDS011;61452;40.054;4.110;2023-02-24T14:19:39;3.50;;;2.25;;
73239;SDS011;61452;40.054;4.110;2023-02-24T14:24:42;4.70;;;2.53;;
73239;SDS011;61452;40.054;4.110;2023-02-24T14:29:44;3.45;;;2.22;;
73239;SDS011;61452;40.054;4.110;2023-02-24T14:34:46;4.95;;;2.65;;
73239;SDS011;61452;40.054;4.110;2023-02-24T14:39:52;3.95;;;2.38;;
73239;SDS011;61452;40.054;4.110;2023-02-24T14:44:56;5.75;;;2.60;;
73239;SDS011;61452;40.054;4.110;2023-02-24T14:50:00;4.75;;;2.40;;
73239;SDS011;61452;40.054;4.110;2023-02-24T14:55:17;4.93;;;2.50;;
73239;SDS011;61452;40.054;4.110;2023-02-24T15:00:23;5.88;;;2.42;;
73239;SDS011;61452;40.054;4.110;2023-02-24T15:05:31;6.65;;;2.75;;
73239;SDS011;61452;40.054;4.110;2023-02-24T15:10:33;3.65;;;2.50;;
73239;SDS011;61452;40.054;4.110;2023-02-24T15:15:35;6.03;;;3.38;;
73239;SDS011;61452;40.054;4.110;2023-02-24T15:20:40;4.28;;;2.55;;
73239;SDS011;61452;40.054;4.110;2023-02-24T15:25:44;4.50;;;2.60;;
73239;SDS011;61452;40.054;4.110;2023-02-24T15:36:04;5.63;;;2.80;;
73239;SDS011;61452;40.054;4.110;2023-02-24T15:41:09;5.93;;;2.85;;
73239;SDS011;61452;40.054;4.110;2023-02-24T15:46:23;6.22;;;2.97;;
73239;SDS011;61452;40.054;4.110;2023-02-24T15:56:39;5.53;;;3.03;;
73239;SDS011;61452;40.054;4.110;2023-02-24T16:06:45;5.20;;;3.08;;
73239;SDS011;61452;40.054;4.110;2023-02-24T16:11:55;5.45;;;3.40;;
73239;SDS011;61452;40.054;4.110;2023-02-24T16:16:57;5.15;;;2.92;;
73239;SDS011;61452;40.054;4.110;2023-02-24T16:22:00;8.48;;;3.20;;
73239;SDS011;61452;40.054;4.110;2023-02-24T16:27:02;6.80;;;3.00;;
73239;SDS011;61452;40.054;4.110;2023-02-24T16:32:08;5.65;;;3.25;;
73239;SDS011;61452;40.054;4.110;2023-02-24T16:37:18;10.18;;;3.95;;
73239;SDS011;61452;40.054;4.110;2023-02-24T16:42:23;10.30;;;4.13;;
73239;SDS011;61452;40.054;4.110;2023-02-24T16:47:25;5.60;;;2.80;;
73239;SDS011;61452;40.054;4.110;2023-02-24T16:52:27;7.15;;;3.33;;
73239;SDS011;61452;40.054;4.110;2023-02-24T16:57:29;9.80;;;3.17;;
73239;SDS011;61452;40.054;4.110;2023-02-24T17:02:31;7.30;;;2.92;;
73239;SDS011;61452;40.054;4.110;2023-02-24T17:07:34;6.18;;;2.83;;
73239;SDS011;61452;40.054;4.110;2023-02-24T17:12:39;6.82;;;2.83;;
73239;SDS011;61452;40.054;4.110;2023-02-24T17:17:42;7.38;;;2.35;;
73239;SDS011;61452;40.054;4.110;2023-02-24T17:22:44;6.78;;;2.95;;
73239;SDS011;61452;40.054;4.110;2023-02-24T17:27:47;6.40;;;3.22;;
73239;SDS011;61452;40.054;4.110;2023-02-24T17:32:49;4.75;;;2.75;;
73239;SDS011;61452;40.054;4.110;2023-02-24T17:37:51;5.60;;;2.40;;
73239;SDS011;61452;40.054;4.110;2023-02-24T17:42:54;7.75;;;2.33;;
73239;SDS011;61452;40.054;4.110;2023-02-24T17:47:56;5.13;;;2.88;;
73239;SDS011;61452;40.054;4.110;2023-02-24T17:52:58;7.13;;;2.38;;
73239;SDS011;61452;40.054;4.110;2023-02-24T17:58:00;7.15;;;2.00;;
73239;SDS011;61452;40.054;4.110;2023-02-24T18:03:02;7.05;;;2.72;;
73239;SDS011;61452;40.054;4.110;2023-02-24T18:08:05;5.53;;;2.00;;
73239;SDS011;61452;40.054;4.110;2023-02-24T18:13:07;4.28;;;1.98;;
73239;SDS011;61452;40.054;4.110;2023-02-24T18:18:13;5.38;;;2.40;;
73239;SDS011;61452;40.054;4.110;2023-02-24T18:23:15;4.20;;;1.98;;
73239;SDS011;61452;40.054;4.110;2023-02-24T18:28:17;6.28;;;2.45;;
73239;SDS011;61452;40.054;4.110;2023-02-24T18:33:19;6.07;;;2.08;;
73239;SDS011;61452;40.054;4.110;2023-02-24T18:38:21;4.65;;;1.83;;
73239;SDS011;61452;40.054;4.110;2023-02-24T18:43:24;4.53;;;2.20;;
73239;SDS011;61452;40.054;4.110;2023-02-24T18:48:26;3.28;;;2.00;;
73239;SDS011;61452;40.054;4.110;2023-02-24T18:53:30;5.25;;;1.92;;
73239;SDS011;61452;40.054;4.110;2023-02-24T18:58:36;4.13;;;1.70;;
73239;SDS011;61452;40.054;4.110;2023-02-24T19:03:40;4.68;;;1.90;;
73239;SDS011;61452;40.054;4.110;2023-02-24T19:08:42;3.95;;;1.55;;
73239;SDS011;61452;40.054;4.110;2023-02-24T19:13:45;5.15;;;2.55;;
73239;SDS011;61452;40.054;4.110;2023-02-24T19:18:51;3.83;;;1.77;;
73239;SDS011;61452;40.054;4.110;2023-02-24T19:23:58;5.03;;;2.00;;
73239;SDS011;61452;40.054;4.110;2023-02-24T19:29:01;5.78;;;2.20;;
73239;SDS011;61452;40.054;4.110;2023-02-24T19:34:05;6.20;;;1.92;;
73239;SDS011;61452;40.054;4.110;2023-02-24T19:39:09;3.03;;;1.55;;
73239;SDS011;61452;40.054;4.110;2023-02-24T19:44:14;4.13;;;1.73;;
73239;SDS011;61452;40.054;4.110;2023-02-24T19:49:16;2.60;;;1.60;;
73239;SDS011;61452;40.054;4.110;2023-02-24T19:54:19;3.42;;;1.73;;
73239;SDS011;61452;40.054;4.110;2023-02-24T19:59:23;6.43;;;1.88;;
73239;SDS011;61452;40.054;4.110;2023-02-24T20:04:25;3.88;;;1.85;;
73239;SDS011;61452;40.054;4.110;2023-02-24T20:09:27;4.03;;;1.58;;
73239;SDS011;61452;40.054;4.110;2023-02-24T20:14:29;3.45;;;1.55;;
73239;SDS011;61452;40.054;4.110;2023-02-24T20:19:32;5.18;;;1.83;;
73239;SDS011;61452;40.054;4.110;2023-02-24T20:24:34;4.70;;;1.52;;
73239;SDS011;61452;40.054;4.110;2023-02-24T20:29:37;5.85;;;1.65;;
73239;SDS011;61452;40.054;4.110;2023-02-24T20:34:39;4.40;;;1.83;;
73239;SDS011;61452;40.054;4.110;2023-02-24T20:39:42;4.72;;;1.60;;
73239;SDS011;61452;40.054;4.110;2023-02-24T20:44:44;3.47;;;1.55;;
73239;SDS011;61452;40.054;4.110;2023-02-24T20:49:46;3.88;;;1.70;;
73239;SDS011;61452;40.054;4.110;2023-02-24T20:54:48;4.47;;;1.48;;
73239;SDS011;61452;40.054;4.110;2023-02-24T20:59:50;3.25;;;1.50;;
73239;SDS011;61452;40.054;4.110;2023-02-24T21:05:04;6.47;;;1.60;;
73239;SDS011;61452;40.054;4.110;2023-02-24T21:10:07;2.75;;;1.42;;
73239;SDS011;61452;40.054;4.110;2023-02-24T21:15:10;5.05;;;2.33;;
73239;SDS011;61452;40.054;4.110;2023-02-24T21:20:12;3.17;;;1.17;;
73239;SDS011;61452;40.054;4.110;2023-02-24T21:25:14;3.97;;;1.13;;
73239;SDS011;61452;40.054;4.110;2023-02-24T21:30:17;4.22;;;1.65;;
73239;SDS011;61452;40.054;4.110;2023-02-24T21:35:19;3.35;;;1.50;;
73239;SDS011;61452;40.054;4.110;2023-02-24T21:40:21;3.05;;;1.42;;
73239;SDS011;61452;40.054;4.110;2023-02-24T21:45:24;3.42;;;1.23;;
73239;SDS011;61452;40.054;4.110;2023-02-24T21:50:28;4.10;;;1.40;;
73239;SDS011;61452;40.054;4.110;2023-02-24T21:55:30;4.40;;;1.42;;
73239;SDS011;61452;40.054;4.110;2023-02-24T22:00:34;3.55;;;1.60;;
73239;SDS011;61452;40.054;4.110;2023-02-24T22:05:36;4.32;;;1.38;;
73239;SDS011;61452;40.054;4.110;2023-02-24T22:10:38;2.78;;;1.50;;
73239;SDS011;61452;40.054;4.110;2023-02-24T22:15:40;4.97;;;1.65;;
73239;SDS011;61452;40.054;4.110;2023-02-24T22:20:42;2.90;;;1.40;;
73239;SDS011;61452;40.054;4.110;2023-02-24T22:25:44;3.58;;;2.10;;
73239;SDS011;61452;40.054;4.110;2023-02-24T22:30:53;2.63;;;1.40;;
73239;SDS011;61452;40.054;4.110;2023-02-24T22:36:04;2.75;;;1.30;;
73239;SDS011;61452;40.054;4.110;2023-02-24T22:41:18;3.63;;;1.20;;
73239;SDS011;61452;40.054;4.110;2023-02-24T22:46:26;3.03;;;1.30;;
73239;SDS011;61452;40.054;4.110;2023-02-24T22:51:33;2.25;;;1.15;;
73239;SDS011;61452;40.054;4.110;2023-02-24T22:56:35;6.13;;;2.22;;
73239;SDS011;61452;40.054;4.110;2023-02-24T23:01:38;2.30;;;1.13;;
73239;SDS011;61452;40.054;4.110;2023-02-24T23:06:41;4.93;;;1.48;;
73239;SDS011;61452;40.054;4.110;2023-02-24T23:11:43;3.72;;;1.35;;
73239;SDS011;61452;40.054;4.110;2023-02-24T23:16:49;3.38;;;1.25;;
73239;SDS011;61452;40.054;4.110;2023-02-24T23:21:55;2.28;;;1.20;;
73239;SDS011;61452;40.054;4.110;2023-02-24T23:26:57;3.25;;;1.40;;
73239;SDS011;61452;40.054;4.110;2023-02-24T23:32:01;3.40;;;1.40;;
73239;SDS011;61452;40.054;4.110;2023-02-24T23:37:03;3.58;;;1.50;;
73239;SDS011;61452;40.054;4.110;2023-02-24T23:42:06;3.03;;;1.30;;
73239;SDS011;61452;40.054;4.110;2023-02-24T23:47:08;4.18;;;1.30;;
73239;SDS011;61452;40.054;4.110;2023-02-24T23:52:10;3.45;;;1.00;;
73239;SDS011;61452;40.054;4.110;2023-02-24T23:57:12;3.05;;;1.05;;
